sensor_id;sensor_type;location;lat;lon;timestamp;P1;durP1;ratioP1;P2;durP2;ratioP2
26391;SDS011;14572;43.120;1.178;2023-04-25T00:01:01;1.75;;;0.80;;
26391;SDS011;14572;43.120;1.178;2023-04-25T00:03:29;4.32;;;1.05;;
26391;SDS011;14572;43.120;1.178;2023-04-25T00:05:56;2.05;;;1.00;;
26391;SDS011;14572;43.120;1.178;2023-04-25T00:08:24;1.10;;;0.75;;
26391;SDS011;14572;43.120;1.178;2023-04-25T00:10:52;2.22;;;0.82;;
26391;SDS011;14572;43.120;1.178;2023-04-25T00:13:20;2.08;;;0.90;;
26391;SDS011;14572;43.120;1.178;2023-04-25T00:15:47;2.65;;;0.73;;
26391;SDS011;14572;43.120;1.178;2023-04-25T00:18:15;1.38;;;0.73;;
26391;SDS011;14572;43.120;1.178;2023-04-25T00:20:42;2.05;;;0.70;;
26391;SDS011;14572;43.120;1.178;2023-04-25T00:23:11;6.13;;;1.08;;
26391;SDS011;14572;43.120;1.178;2023-04-25T00:25:44;1.35;;;0.70;;
26391;SDS011;14572;43.120;1.178;2023-04-25T00:28:11;2.60;;;0.70;;
26391;SDS011;14572;43.120;1.178;2023-04-25T00:30:38;2.00;;;0.55;;
26391;SDS011;14572;43.120;1.178;2023-04-25T00:33:05;1.48;;;0.57;;
26391;SDS011;14572;43.120;1.178;2023-04-25T00:35:33;4.13;;;0.75;;
26391;SDS011;14572;43.120;1.178;2023-04-25T00:38:00;1.00;;;0.40;;
26391;SDS011;14572;43.120;1.178;2023-04-25T00:40:28;5.38;;;0.75;;
26391;SDS011;14572;43.120;1.178;2023-04-25T00:42:56;0.55;;;0.55;;
26391;SDS011;14572;43.120;1.178;2023-04-25T00:45:24;0.47;;;0.45;;
26391;SDS011;14572;43.120;1.178;2023-04-25T00:47:54;0.60;;;0.60;;
26391;SDS011;14572;43.120;1.178;2023-04-25T00:50:21;1.95;;;0.63;;
26391;SDS011;14572;43.120;1.178;2023-04-25T00:52:49;2.28;;;0.80;;
26391;SDS011;14572;43.120;1.178;2023-04-25T00:55:16;1.30;;;0.50;;
26391;SDS011;14572;43.120;1.178;2023-04-25T00:57:44;1.05;;;0.60;;
26391;SDS011;14572;43.120;1.178;2023-04-25T01:00:15;0.70;;;0.38;;
26391;SDS011;14572;43.120;1.178;2023-04-25T01:02:43;2.20;;;0.60;;
26391;SDS011;14572;43.120;1.178;2023-04-25T01:05:11;1.33;;;0.40;;
26391;SDS011;14572;43.120;1.178;2023-04-25T01:07:38;1.13;;;0.57;;
26391;SDS011;14572;43.120;1.178;2023-04-25T01:10:06;0.73;;;0.47;;
26391;SDS011;14572;43.120;1.178;2023-04-25T01:12:35;2.80;;;0.60;;
26391;SDS011;14572;43.120;1.178;2023-04-25T01:15:02;2.22;;;0.40;;
26391;SDS011;14572;43.120;1.178;2023-04-25T01:17:31;2.38;;;0.43;;
26391;SDS011;14572;43.120;1.178;2023-04-25T01:19:58;2.38;;;0.63;;
26391;SDS011;14572;43.120;1.178;2023-04-25T01:22:28;1.92;;;0.82;;
26391;SDS011;14572;43.120;1.178;2023-04-25T01:24:56;2.60;;;1.05;;
26391;SDS011;14572;43.120;1.178;2023-04-25T01:27:23;2.10;;;0.75;;
26391;SDS011;14572;43.120;1.178;2023-04-25T01:29:50;2.13;;;0.65;;
26391;SDS011;14572;43.120;1.178;2023-04-25T01:32:18;3.60;;;0.68;;
26391;SDS011;14572;43.120;1.178;2023-04-25T01:34:46;3.30;;;0.63;;
26391;SDS011;14572;43.120;1.178;2023-04-25T01:37:13;3.85;;;1.00;;
26391;SDS011;14572;43.120;1.178;2023-04-25T01:39:42;1.50;;;0.55;;
26391;SDS011;14572;43.120;1.178;2023-04-25T01:42:09;1.55;;;0.75;;
26391;SDS011;14572;43.120;1.178;2023-04-25T01:44:37;2.40;;;0.60;;
26391;SDS011;14572;43.120;1.178;2023-04-25T01:47:04;2.60;;;0.90;;
26391;SDS011;14572;43.120;1.178;2023-04-25T01:49:31;3.20;;;0.88;;
26391;SDS011;14572;43.120;1.178;2023-04-25T01:51:58;0.90;;;0.70;;
26391;SDS011;14572;43.120;1.178;2023-04-25T01:54:26;0.70;;;0.60;;
26391;SDS011;14572;43.120;1.178;2023-04-25T01:56:56;1.08;;;0.50;;
26391;SDS011;14572;43.120;1.178;2023-04-25T01:59:24;3.30;;;0.60;;
26391;SDS011;14572;43.120;1.178;2023-04-25T02:01:51;3.22;;;0.63;;
26391;SDS011;14572;43.120;1.178;2023-04-25T02:04:18;4.60;;;1.00;;
26391;SDS011;14572;43.120;1.178;2023-04-25T02:06:45;0.93;;;0.60;;
26391;SDS011;14572;43.120;1.178;2023-04-25T02:09:12;3.10;;;1.27;;
26391;SDS011;14572;43.120;1.178;2023-04-25T02:11:39;2.03;;;1.00;;
26391;SDS011;14572;43.120;1.178;2023-04-25T02:14:08;3.83;;;1.40;;
26391;SDS011;14572;43.120;1.178;2023-04-25T02:16:35;4.43;;;1.20;;
26391;SDS011;14572;43.120;1.178;2023-04-25T02:19:03;2.03;;;0.88;;
26391;SDS011;14572;43.120;1.178;2023-04-25T02:21:31;2.47;;;1.30;;
26391;SDS011;14572;43.120;1.178;2023-04-25T02:27:22;4.03;;;1.67;;
26391;SDS011;14572;43.120;1.178;2023-04-25T02:29:51;4.20;;;1.60;;
26391;SDS011;14572;43.120;1.178;2023-04-25T02:32:18;6.13;;;1.90;;
26391;SDS011;14572;43.120;1.178;2023-04-25T02:34:45;3.10;;;1.73;;
26391;SDS011;14572;43.120;1.178;2023-04-25T02:37:13;3.92;;;1.95;;
26391;SDS011;14572;43.120;1.178;2023-04-25T02:39:40;3.95;;;1.92;;
26391;SDS011;14572;43.120;1.178;2023-04-25T02:42:07;6.72;;;2.10;;
26391;SDS011;14572;43.120;1.178;2023-04-25T02:44:34;2.35;;;1.80;;
26391;SDS011;14572;43.120;1.178;2023-04-25T02:47:03;5.47;;;2.08;;
26391;SDS011;14572;43.120;1.178;2023-04-25T02:49:30;4.30;;;1.70;;
26391;SDS011;14572;43.120;1.178;2023-04-25T02:51:57;5.63;;;1.60;;
26391;SDS011;14572;43.120;1.178;2023-04-25T02:54:25;2.72;;;1.60;;
26391;SDS011;14572;43.120;1.178;2023-04-25T02:56:52;4.45;;;1.67;;
26391;SDS011;14572;43.120;1.178;2023-04-25T02:59:19;4.03;;;2.05;;
26391;SDS011;14572;43.120;1.178;2023-04-25T03:01:46;2.60;;;1.20;;
26391;SDS011;14572;43.120;1.178;2023-04-25T03:04:15;2.40;;;1.48;;
26391;SDS011;14572;43.120;1.178;2023-04-25T03:06:44;3.90;;;1.67;;
26391;SDS011;14572;43.120;1.178;2023-04-25T03:09:11;2.22;;;1.33;;
26391;SDS011;14572;43.120;1.178;2023-04-25T03:11:38;3.65;;;1.50;;
26391;SDS011;14572;43.120;1.178;2023-04-25T03:14:05;2.97;;;1.42;;
26391;SDS011;14572;43.120;1.178;2023-04-25T03:16:32;1.73;;;1.35;;
26391;SDS011;14572;43.120;1.178;2023-04-25T03:19:00;4.63;;;1.60;;
26391;SDS011;14572;43.120;1.178;2023-04-25T03:21:28;3.35;;;1.70;;
26391;SDS011;14572;43.120;1.178;2023-04-25T03:23:57;3.50;;;1.50;;
26391;SDS011;14572;43.120;1.178;2023-04-25T03:26:24;3.00;;;1.80;;
26391;SDS011;14572;43.120;1.178;2023-04-25T03:28:51;4.68;;;1.40;;
26391;SDS011;14572;43.120;1.178;2023-04-25T03:31:18;4.18;;;1.40;;
26391;SDS011;14572;43.120;1.178;2023-04-25T03:33:45;4.45;;;1.50;;
26391;SDS011;14572;43.120;1.178;2023-04-25T03:36:13;2.22;;;1.55;;
26391;SDS011;14572;43.120;1.178;2023-04-25T03:38:42;2.38;;;1.60;;
26391;SDS011;14572;43.120;1.178;2023-04-25T03:41:09;2.28;;;1.17;;
26391;SDS011;14572;43.120;1.178;2023-04-25T03:43:36;1.92;;;1.17;;
26391;SDS011;14572;43.120;1.178;2023-04-25T03:46:04;2.88;;;1.60;;
26391;SDS011;14572;43.120;1.178;2023-04-25T03:48:31;5.00;;;1.92;;
26391;SDS011;14572;43.120;1.178;2023-04-25T03:50:58;3.58;;;1.60;;
26391;SDS011;14572;43.120;1.178;2023-04-25T03:53:25;2.90;;;1.60;;
26391;SDS011;14572;43.120;1.178;2023-04-25T03:55:54;3.47;;;1.83;;
26391;SDS011;14572;43.120;1.178;2023-04-25T03:58:21;2.13;;;1.20;;
26391;SDS011;14572;43.120;1.178;2023-04-25T04:00:49;2.03;;;1.13;;
26391;SDS011;14572;43.120;1.178;2023-04-25T04:03:17;3.03;;;1.20;;
26391;SDS011;14572;43.120;1.178;2023-04-25T04:05:44;1.17;;;0.80;;
26391;SDS011;14572;43.120;1.178;2023-04-25T04:08:11;1.90;;;1.10;;
26391;SDS011;14572;43.120;1.178;2023-04-25T04:10:38;6.43;;;1.25;;
26391;SDS011;14572;43.120;1.178;2023-04-25T04:13:07;4.63;;;1.00;;
26391;SDS011;14572;43.120;1.178;2023-04-25T04:15:34;3.15;;;0.95;;
26391;SDS011;14572;43.120;1.178;2023-04-25T04:18:01;8.18;;;1.20;;
26391;SDS011;14572;43.120;1.178;2023-04-25T04:20:29;2.80;;;1.15;;
26391;SDS011;14572;43.120;1.178;2023-04-25T04:22:56;3.72;;;0.90;;
26391;SDS011;14572;43.120;1.178;2023-04-25T04:25:23;5.10;;;1.30;;
26391;SDS011;14572;43.120;1.178;2023-04-25T04:27:51;5.32;;;1.08;;
26391;SDS011;14572;43.120;1.178;2023-04-25T04:30:21;1.73;;;0.93;;
26391;SDS011;14572;43.120;1.178;2023-04-25T04:32:50;2.25;;;0.70;;
26391;SDS011;14572;43.120;1.178;2023-04-25T04:35:18;1.33;;;0.80;;
26391;SDS011;14572;43.120;1.178;2023-04-25T04:37:45;2.22;;;0.70;;
26391;SDS011;14572;43.120;1.178;2023-04-25T04:40:13;2.08;;;0.80;;
26391;SDS011;14572;43.120;1.178;2023-04-25T04:42:42;0.60;;;0.60;;
26391;SDS011;14572;43.120;1.178;2023-04-25T04:45:10;1.15;;;0.70;;
26391;SDS011;14572;43.120;1.178;2023-04-25T04:47:39;5.30;;;1.27;;
26391;SDS011;14572;43.120;1.178;2023-04-25T04:50:07;4.00;;;0.70;;
26391;SDS011;14572;43.120;1.178;2023-04-25T04:52:35;0.73;;;0.60;;
26391;SDS011;14572;43.120;1.178;2023-04-25T04:55:02;3.80;;;0.82;;
26391;SDS011;14572;43.120;1.178;2023-04-25T04:57:30;5.10;;;0.77;;
26391;SDS011;14572;43.120;1.178;2023-04-25T04:59:58;3.70;;;0.70;;
26391;SDS011;14572;43.120;1.178;2023-04-25T05:02:25;9.25;;;0.95;;
26391;SDS011;14572;43.120;1.178;2023-04-25T05:04:55;1.83;;;0.70;;
26391;SDS011;14572;43.120;1.178;2023-04-25T05:07:23;1.58;;;0.70;;
26391;SDS011;14572;43.120;1.178;2023-04-25T05:09:50;2.00;;;0.55;;
26391;SDS011;14572;43.120;1.178;2023-04-25T05:12:17;3.03;;;1.23;;
26391;SDS011;14572;43.120;1.178;2023-04-25T05:14:44;2.22;;;0.50;;
26391;SDS011;14572;43.120;1.178;2023-04-25T05:17:11;1.73;;;0.80;;
26391;SDS011;14572;43.120;1.178;2023-04-25T05:19:39;3.72;;;0.70;;
26391;SDS011;14572;43.120;1.178;2023-04-25T05:22:07;3.92;;;0.65;;
26391;SDS011;14572;43.120;1.178;2023-04-25T05:24:35;3.38;;;0.65;;
26391;SDS011;14572;43.120;1.178;2023-04-25T05:27:02;0.40;;;0.40;;
26391;SDS011;14572;43.120;1.178;2023-04-25T05:29:30;1.90;;;0.47;;
26391;SDS011;14572;43.120;1.178;2023-04-25T05:31:58;1.13;;;0.50;;
26391;SDS011;14572;43.120;1.178;2023-04-25T05:34:25;3.85;;;0.85;;
26391;SDS011;14572;43.120;1.178;2023-04-25T05:36:52;2.47;;;0.50;;
26391;SDS011;14572;43.120;1.178;2023-04-25T05:39:21;2.17;;;0.60;;
26391;SDS011;14572;43.120;1.178;2023-04-25T05:41:48;2.72;;;0.60;;
26391;SDS011;14572;43.120;1.178;2023-04-25T05:44:15;2.65;;;0.50;;
26391;SDS011;14572;43.120;1.178;2023-04-25T05:46:42;2.67;;;0.63;;
26391;SDS011;14572;43.120;1.178;2023-04-25T05:49:09;2.53;;;0.55;;
26391;SDS011;14572;43.120;1.178;2023-04-25T05:51:36;0.50;;;0.47;;
26391;SDS011;14572;43.120;1.178;2023-04-25T05:54:04;0.73;;;0.50;;
26391;SDS011;14572;43.120;1.178;2023-04-25T05:56:32;3.00;;;0.45;;
26391;SDS011;14572;43.120;1.178;2023-04-25T05:59:00;2.90;;;0.50;;
26391;SDS011;14572;43.120;1.178;2023-04-25T06:01:27;3.10;;;0.60;;
26391;SDS011;14572;43.120;1.178;2023-04-25T06:03:55;2.92;;;0.63;;
26391;SDS011;14572;43.120;1.178;2023-04-25T06:06:22;4.43;;;0.55;;
26391;SDS011;14572;43.120;1.178;2023-04-25T06:08:49;0.68;;;0.60;;
26391;SDS011;14572;43.120;1.178;2023-04-25T06:11:17;1.20;;;0.50;;
26391;SDS011;14572;43.120;1.178;2023-04-25T06:13:46;3.25;;;0.80;;
26391;SDS011;14572;43.120;1.178;2023-04-25T06:16:14;1.55;;;0.50;;
26391;SDS011;14572;43.120;1.178;2023-04-25T06:18:41;4.22;;;0.70;;
26391;SDS011;14572;43.120;1.178;2023-04-25T06:21:08;0.73;;;0.70;;
26391;SDS011;14572;43.120;1.178;2023-04-25T06:23:35;1.15;;;0.80;;
26391;SDS011;14572;43.120;1.178;2023-04-25T06:26:03;1.10;;;0.60;;
26391;SDS011;14572;43.120;1.178;2023-04-25T06:28:30;1.27;;;0.60;;
26391;SDS011;14572;43.120;1.178;2023-04-25T06:30:59;2.13;;;0.73;;
26391;SDS011;14572;43.120;1.178;2023-04-25T06:33:27;5.07;;;0.60;;
26391;SDS011;14572;43.120;1.178;2023-04-25T06:35:54;2.33;;;1.00;;
26391;SDS011;14572;43.120;1.178;2023-04-25T06:38:21;2.58;;;0.60;;
26391;SDS011;14572;43.120;1.178;2023-04-25T06:40:48;1.85;;;0.90;;
26391;SDS011;14572;43.120;1.178;2023-04-25T06:43:16;5.35;;;0.90;;
26391;SDS011;14572;43.120;1.178;2023-04-25T06:45:43;1.60;;;0.80;;
26391;SDS011;14572;43.120;1.178;2023-04-25T06:48:12;1.17;;;0.85;;
26391;SDS011;14572;43.120;1.178;2023-04-25T06:50:39;3.60;;;0.90;;
26391;SDS011;14572;43.120;1.178;2023-04-25T06:53:06;2.03;;;0.88;;
26391;SDS011;14572;43.120;1.178;2023-04-25T06:55:34;3.38;;;1.00;;
26391;SDS011;14572;43.120;1.178;2023-04-25T06:58:01;4.38;;;1.20;;
26391;SDS011;14572;43.120;1.178;2023-04-25T07:00:29;1.85;;;1.08;;
26391;SDS011;14572;43.120;1.178;2023-04-25T07:02:56;0.93;;;0.80;;
26391;SDS011;14572;43.120;1.178;2023-04-25T07:05:25;2.15;;;1.02;;
26391;SDS011;14572;43.120;1.178;2023-04-25T07:07:52;2.50;;;1.10;;
26391;SDS011;14572;43.120;1.178;2023-04-25T07:10:19;1.48;;;1.20;;
26391;SDS011;14572;43.120;1.178;2023-04-25T07:12:47;1.95;;;1.20;;
26391;SDS011;14572;43.120;1.178;2023-04-25T07:15:14;0.75;;;0.75;;
26391;SDS011;14572;43.120;1.178;2023-04-25T07:17:41;1.88;;;0.90;;
26391;SDS011;14572;43.120;1.178;2023-04-25T07:20:08;1.67;;;1.20;;
26391;SDS011;14572;43.120;1.178;2023-04-25T07:22:38;1.75;;;1.13;;
26391;SDS011;14572;43.120;1.178;2023-04-25T07:25:05;2.67;;;1.00;;
26391;SDS011;14572;43.120;1.178;2023-04-25T07:27:33;2.50;;;0.90;;
26391;SDS011;14572;43.120;1.178;2023-04-25T07:30:00;2.33;;;1.08;;
26391;SDS011;14572;43.120;1.178;2023-04-25T07:32:28;2.22;;;1.05;;
26391;SDS011;14572;43.120;1.178;2023-04-25T07:34:56;1.17;;;0.85;;
26391;SDS011;14572;43.120;1.178;2023-04-25T07:37:23;1.15;;;1.00;;
26391;SDS011;14572;43.120;1.178;2023-04-25T07:39:52;3.00;;;1.10;;
26391;SDS011;14572;43.120;1.178;2023-04-25T07:42:19;3.83;;;1.00;;
26391;SDS011;14572;43.120;1.178;2023-04-25T07:44:47;3.03;;;1.10;;
26391;SDS011;14572;43.120;1.178;2023-04-25T07:47:14;1.90;;;0.90;;
26391;SDS011;14572;43.120;1.178;2023-04-25T07:49:41;3.70;;;1.25;;
26391;SDS011;14572;43.120;1.178;2023-04-25T07:52:08;5.20;;;1.08;;
26391;SDS011;14572;43.120;1.178;2023-04-25T07:54:35;3.58;;;1.50;;
26391;SDS011;14572;43.120;1.178;2023-04-25T07:57:04;1.52;;;1.02;;
26391;SDS011;14572;43.120;1.178;2023-04-25T07:59:31;2.28;;;1.10;;
26391;SDS011;14572;43.120;1.178;2023-04-25T08:01:58;3.05;;;1.35;;
26391;SDS011;14572;43.120;1.178;2023-04-25T08:04:26;4.72;;;1.50;;
26391;SDS011;14572;43.120;1.178;2023-04-25T08:06:53;3.78;;;1.35;;
26391;SDS011;14572;43.120;1.178;2023-04-25T08:09:21;2.10;;;1.20;;
26391;SDS011;14572;43.120;1.178;2023-04-25T08:11:49;2.88;;;1.50;;
26391;SDS011;14572;43.120;1.178;2023-04-25T08:14:17;2.85;;;1.10;;
26391;SDS011;14572;43.120;1.178;2023-04-25T08:16:44;3.17;;;1.10;;
26391;SDS011;14572;43.120;1.178;2023-04-25T08:19:12;4.45;;;1.10;;
26391;SDS011;14572;43.120;1.178;2023-04-25T08:21:39;2.85;;;0.90;;
26391;SDS011;14572;43.120;1.178;2023-04-25T08:24:06;2.85;;;1.00;;
26391;SDS011;14572;43.120;1.178;2023-04-25T08:26:34;1.20;;;0.90;;
26391;SDS011;14572;43.120;1.178;2023-04-25T08:29:02;2.05;;;0.90;;
26391;SDS011;14572;43.120;1.178;2023-04-25T08:31:34;1.27;;;0.80;;
26391;SDS011;14572;43.120;1.178;2023-04-25T08:34:01;1.35;;;0.70;;
26391;SDS011;14572;43.120;1.178;2023-04-25T08:36:28;3.15;;;0.65;;
26391;SDS011;14572;43.120;1.178;2023-04-25T08:38:56;3.67;;;0.70;;
26391;SDS011;14572;43.120;1.178;2023-04-25T08:41:24;3.80;;;0.43;;
26391;SDS011;14572;43.120;1.178;2023-04-25T08:43:52;2.15;;;0.40;;
26391;SDS011;14572;43.120;1.178;2023-04-25T08:46:20;1.98;;;0.50;;
26391;SDS011;14572;43.120;1.178;2023-04-25T08:48:49;2.20;;;0.32;;
26391;SDS011;14572;43.120;1.178;2023-04-25T08:51:20;0.40;;;0.20;;
26391;SDS011;14572;43.120;1.178;2023-04-25T08:53:50;2.28;;;0.30;;
26391;SDS011;14572;43.120;1.178;2023-04-25T08:56:18;1.77;;;0.35;;
26391;SDS011;14572;43.120;1.178;2023-04-25T08:58:49;0.98;;;0.17;;
26391;SDS011;14572;43.120;1.178;2023-04-25T09:01:16;1.67;;;0.30;;
26391;SDS011;14572;43.120;1.178;2023-04-25T09:03:44;3.15;;;0.32;;
26391;SDS011;14572;43.120;1.178;2023-04-25T09:06:13;1.08;;;0.30;;
26391;SDS011;14572;43.120;1.178;2023-04-25T09:08:41;4.47;;;0.30;;
26391;SDS011;14572;43.120;1.178;2023-04-25T09:11:09;0.52;;;0.10;;
26391;SDS011;14572;43.120;1.178;2023-04-25T09:13:36;0.90;;;0.10;;
26391;SDS011;14572;43.120;1.178;2023-04-25T09:16:03;3.22;;;0.20;;
26391;SDS011;14572;43.120;1.178;2023-04-25T09:18:31;2.00;;;0.13;;
26391;SDS011;14572;43.120;1.178;2023-04-25T09:21:04;0.10;;;0.10;;
26391;SDS011;14572;43.120;1.178;2023-04-25T09:23:38;0.20;;;0.10;;
26391;SDS011;14572;43.120;1.178;2023-04-25T09:26:06;2.58;;;0.20;;
26391;SDS011;14572;43.120;1.178;2023-04-25T09:28:35;0.35;;;0.10;;
26391;SDS011;14572;43.120;1.178;2023-04-25T09:31:03;5.43;;;0.10;;
26391;SDS011;14572;43.120;1.178;2023-04-25T09:33:31;1.05;;;0.10;;
26391;SDS011;14572;43.120;1.178;2023-04-25T09:36:01;43.78;;;1.83;;
26391;SDS011;14572;43.120;1.178;2023-04-25T09:38:30;0.28;;;0.17;;
26391;SDS011;14572;43.120;1.178;2023-04-25T09:40:59;6.38;;;0.20;;
26391;SDS011;14572;43.120;1.178;2023-04-25T09:43:27;0.73;;;0.20;;
26391;SDS011;14572;43.120;1.178;2023-04-25T09:45:54;0.80;;;0.80;;
26391;SDS011;14572;43.120;1.178;2023-04-25T09:48:25;0.90;;;0.10;;
26391;SDS011;14572;43.120;1.178;2023-04-25T09:51:06;1.20;;;0.10;;
26391;SDS011;14572;43.120;1.178;2023-04-25T09:53:34;0.40;;;0.20;;
26391;SDS011;14572;43.120;1.178;2023-04-25T09:56:05;0.43;;;0.10;;
26391;SDS011;14572;43.120;1.178;2023-04-25T09:58:32;0.28;;;0.10;;
26391;SDS011;14572;43.120;1.178;2023-04-25T10:01:03;0.88;;;0.20;;
26391;SDS011;14572;43.120;1.178;2023-04-25T10:03:32;1.00;;;0.20;;
26391;SDS011;14572;43.120;1.178;2023-04-25T10:06:00;0.20;;;0.10;;
26391;SDS011;14572;43.120;1.178;2023-04-25T10:08:29;0.20;;;0.10;;
26391;SDS011;14572;43.120;1.178;2023-04-25T10:11:00;0.17;;;0.10;;
26391;SDS011;14572;43.120;1.178;2023-04-25T10:13:30;1.65;;;0.10;;
26391;SDS011;14572;43.120;1.178;2023-04-25T10:15:58;0.50;;;0.30;;
26391;SDS011;14572;43.120;1.178;2023-04-25T10:18:26;0.50;;;0.30;;
26391;SDS011;14572;43.120;1.178;2023-04-25T10:20:53;0.98;;;0.40;;
26391;SDS011;14572;43.120;1.178;2023-04-25T10:23:21;1.85;;;0.43;;
26391;SDS011;14572;43.120;1.178;2023-04-25T10:25:49;0.47;;;0.40;;
26391;SDS011;14572;43.120;1.178;2023-04-25T10:28:17;0.63;;;0.63;;
26391;SDS011;14572;43.120;1.178;2023-04-25T10:31:00;5.65;;;0.68;;
26391;SDS011;14572;43.120;1.178;2023-04-25T10:33:34;1.42;;;0.80;;
26391;SDS011;14572;43.120;1.178;2023-04-25T10:36:08;0.60;;;0.50;;
26391;SDS011;14572;43.120;1.178;2023-04-25T10:38:37;0.50;;;0.40;;
26391;SDS011;14572;43.120;1.178;2023-04-25T10:41:05;0.57;;;0.47;;
26391;SDS011;14572;43.120;1.178;2023-04-25T10:43:34;0.40;;;0.25;;
26391;SDS011;14572;43.120;1.178;2023-04-25T10:46:03;0.98;;;0.20;;
26391;SDS011;14572;43.120;1.178;2023-04-25T10:48:44;0.75;;;0.13;;
26391;SDS011;14572;43.120;1.178;2023-04-25T10:51:15;1.73;;;0.20;;
26391;SDS011;14572;43.120;1.178;2023-04-25T10:53:43;0.20;;;0.20;;
26391;SDS011;14572;43.120;1.178;2023-04-25T10:56:11;0.20;;;0.20;;
26391;SDS011;14572;43.120;1.178;2023-04-25T10:58:42;1.77;;;0.52;;
26391;SDS011;14572;43.120;1.178;2023-04-25T11:01:11;1.45;;;0.22;;
26391;SDS011;14572;43.120;1.178;2023-04-25T11:03:40;0.20;;;0.20;;
26391;SDS011;14572;43.120;1.178;2023-04-25T11:06:10;0.20;;;0.10;;
26391;SDS011;14572;43.120;1.178;2023-04-25T11:08:46;1.30;;;0.20;;
26391;SDS011;14572;43.120;1.178;2023-04-25T11:11:15;1.55;;;0.47;;
26391;SDS011;14572;43.120;1.178;2023-04-25T11:13:43;0.65;;;0.30;;
26391;SDS011;14572;43.120;1.178;2023-04-25T11:16:11;0.95;;;0.30;;
26391;SDS011;14572;43.120;1.178;2023-04-25T11:18:40;0.22;;;0.20;;
26391;SDS011;14572;43.120;1.178;2023-04-25T11:21:08;0.45;;;0.20;;
26391;SDS011;14572;43.120;1.178;2023-04-25T11:23:35;0.40;;;0.20;;
26391;SDS011;14572;43.120;1.178;2023-04-25T11:26:03;2.35;;;0.28;;
26391;SDS011;14572;43.120;1.178;2023-04-25T11:28:30;1.63;;;0.50;;
26391;SDS011;14572;43.120;1.178;2023-04-25T11:30:58;0.50;;;0.40;;
26391;SDS011;14572;43.120;1.178;2023-04-25T11:33:27;1.08;;;0.20;;
26391;SDS011;14572;43.120;1.178;2023-04-25T11:35:54;1.63;;;0.20;;
26391;SDS011;14572;43.120;1.178;2023-04-25T11:38:22;2.00;;;0.22;;
26391;SDS011;14572;43.120;1.178;2023-04-25T11:40:50;0.45;;;0.20;;
26391;SDS011;14572;43.120;1.178;2023-04-25T11:43:18;0.32;;;0.32;;
26391;SDS011;14572;43.120;1.178;2023-04-25T11:45:47;0.30;;;0.20;;
26391;SDS011;14572;43.120;1.178;2023-04-25T11:48:15;3.17;;;0.20;;
26391;SDS011;14572;43.120;1.178;2023-04-25T11:50:44;0.63;;;0.20;;
26391;SDS011;14572;43.120;1.178;2023-04-25T11:53:11;0.30;;;0.20;;
26391;SDS011;14572;43.120;1.178;2023-04-25T11:55:39;0.80;;;0.20;;
26391;SDS011;14572;43.120;1.178;2023-04-25T11:58:06;0.82;;;0.40;;
26391;SDS011;14572;43.120;1.178;2023-04-25T12:00:33;0.75;;;0.30;;
26391;SDS011;14572;43.120;1.178;2023-04-25T12:03:02;2.15;;;0.55;;
26391;SDS011;14572;43.120;1.178;2023-04-25T12:05:29;0.32;;;0.20;;
26391;SDS011;14572;43.120;1.178;2023-04-25T12:07:59;2.65;;;0.30;;
26391;SDS011;14572;43.120;1.178;2023-04-25T12:10:37;2.15;;;0.38;;
26391;SDS011;14572;43.120;1.178;2023-04-25T12:13:17;1.95;;;0.40;;
26391;SDS011;14572;43.120;1.178;2023-04-25T12:15:46;0.20;;;0.20;;
26391;SDS011;14572;43.120;1.178;2023-04-25T12:18:14;0.68;;;0.30;;
26391;SDS011;14572;43.120;1.178;2023-04-25T12:20:41;2.72;;;0.30;;
26391;SDS011;14572;43.120;1.178;2023-04-25T12:23:09;0.15;;;0.15;;
26391;SDS011;14572;43.120;1.178;2023-04-25T12:25:38;4.20;;;0.30;;
26391;SDS011;14572;43.120;1.178;2023-04-25T12:28:13;1.13;;;0.30;;
26391;SDS011;14572;43.120;1.178;2023-04-25T12:33:30;2.10;;;0.50;;
26391;SDS011;14572;43.120;1.178;2023-04-25T12:35:58;1.48;;;0.57;;
26391;SDS011;14572;43.120;1.178;2023-04-25T12:38:30;2.33;;;0.60;;
26391;SDS011;14572;43.120;1.178;2023-04-25T12:40:59;2.05;;;0.52;;
26391;SDS011;14572;43.120;1.178;2023-04-25T12:43:26;1.33;;;0.90;;
26391;SDS011;14572;43.120;1.178;2023-04-25T12:45:54;1.15;;;1.05;;
26391;SDS011;14572;43.120;1.178;2023-04-25T12:48:22;2.08;;;1.30;;
26391;SDS011;14572;43.120;1.178;2023-04-25T12:50:49;2.67;;;1.00;;
26391;SDS011;14572;43.120;1.178;2023-04-25T12:53:17;2.90;;;0.93;;
26391;SDS011;14572;43.120;1.178;2023-04-25T12:55:46;0.95;;;0.43;;
26391;SDS011;14572;43.120;1.178;2023-04-25T12:58:14;2.53;;;0.38;;
26391;SDS011;14572;43.120;1.178;2023-04-25T13:00:41;0.55;;;0.35;;
26391;SDS011;14572;43.120;1.178;2023-04-25T13:03:08;1.00;;;0.30;;
26391;SDS011;14572;43.120;1.178;2023-04-25T13:05:35;0.95;;;0.20;;
26391;SDS011;14572;43.120;1.178;2023-04-25T13:08:03;2.08;;;0.30;;
26391;SDS011;14572;43.120;1.178;2023-04-25T13:10:30;0.60;;;0.25;;
26391;SDS011;14572;43.120;1.178;2023-04-25T13:13:00;0.85;;;0.22;;
26391;SDS011;14572;43.120;1.178;2023-04-25T13:15:27;2.20;;;0.40;;
26391;SDS011;14572;43.120;1.178;2023-04-25T13:17:55;0.20;;;0.20;;
26391;SDS011;14572;43.120;1.178;2023-04-25T13:20:22;5.15;;;0.20;;
26391;SDS011;14572;43.120;1.178;2023-04-25T13:22:49;1.85;;;0.15;;
26391;SDS011;14572;43.120;1.178;2023-04-25T13:25:17;1.13;;;0.20;;
26391;SDS011;14572;43.120;1.178;2023-04-25T13:27:44;2.15;;;0.20;;
26391;SDS011;14572;43.120;1.178;2023-04-25T13:30:13;2.70;;;0.13;;
26391;SDS011;14572;43.120;1.178;2023-04-25T13:32:41;0.10;;;0.10;;
26391;SDS011;14572;43.120;1.178;2023-04-25T13:35:09;0.50;;;0.20;;
26391;SDS011;14572;43.120;1.178;2023-04-25T13:37:37;0.10;;;0.10;;
26391;SDS011;14572;43.120;1.178;2023-04-25T13:40:05;0.57;;;0.10;;
26391;SDS011;14572;43.120;1.178;2023-04-25T13:42:35;0.38;;;0.20;;
26391;SDS011;14572;43.120;1.178;2023-04-25T13:45:02;1.52;;;0.20;;
26391;SDS011;14572;43.120;1.178;2023-04-25T13:47:31;1.65;;;0.30;;
26391;SDS011;14572;43.120;1.178;2023-04-25T13:49:58;0.20;;;0.20;;
26391;SDS011;14572;43.120;1.178;2023-04-25T13:52:28;0.25;;;0.25;;
26391;SDS011;14572;43.120;1.178;2023-04-25T13:54:55;0.80;;;0.30;;
26391;SDS011;14572;43.120;1.178;2023-04-25T13:57:23;1.17;;;0.50;;
26391;SDS011;14572;43.120;1.178;2023-04-25T13:59:50;0.45;;;0.45;;
26391;SDS011;14572;43.120;1.178;2023-04-25T14:02:18;2.38;;;0.30;;
26391;SDS011;14572;43.120;1.178;2023-04-25T14:04:46;0.20;;;0.20;;
26391;SDS011;14572;43.120;1.178;2023-04-25T14:07:14;0.30;;;0.20;;
26391;SDS011;14572;43.120;1.178;2023-04-25T14:09:43;0.20;;;0.20;;
26391;SDS011;14572;43.120;1.178;2023-04-25T14:12:10;1.95;;;0.30;;
26391;SDS011;14572;43.120;1.178;2023-04-25T14:14:38;0.30;;;0.30;;
26391;SDS011;14572;43.120;1.178;2023-04-25T14:17:05;0.40;;;0.40;;
26391;SDS011;14572;43.120;1.178;2023-04-25T14:19:32;1.00;;;0.43;;
26391;SDS011;14572;43.120;1.178;2023-04-25T14:22:01;0.28;;;0.28;;
26391;SDS011;14572;43.120;1.178;2023-04-25T14:24:28;0.30;;;0.28;;
26391;SDS011;14572;43.120;1.178;2023-04-25T14:26:55;0.40;;;0.25;;
26391;SDS011;14572;43.120;1.178;2023-04-25T14:29:22;0.50;;;0.40;;
26391;SDS011;14572;43.120;1.178;2023-04-25T14:31:49;0.30;;;0.30;;
26391;SDS011;14572;43.120;1.178;2023-04-25T14:34:16;0.75;;;0.63;;
26391;SDS011;14572;43.120;1.178;2023-04-25T14:36:43;0.30;;;0.25;;
26391;SDS011;14572;43.120;1.178;2023-04-25T14:39:12;0.60;;;0.20;;
26391;SDS011;14572;43.120;1.178;2023-04-25T14:41:39;0.40;;;0.40;;
26391;SDS011;14572;43.120;1.178;2023-04-25T14:44:06;0.45;;;0.20;;
26391;SDS011;14572;43.120;1.178;2023-04-25T14:46:34;0.40;;;0.40;;
26391;SDS011;14572;43.120;1.178;2023-04-25T14:49:01;0.40;;;0.40;;
26391;SDS011;14572;43.120;1.178;2023-04-25T14:51:29;0.50;;;0.50;;
26391;SDS011;14572;43.120;1.178;2023-04-25T14:53:56;0.50;;;0.40;;
26391;SDS011;14572;43.120;1.178;2023-04-25T14:56:24;0.77;;;0.40;;
26391;SDS011;14572;43.120;1.178;2023-04-25T14:58:52;1.95;;;0.50;;